Time;durP1;ratioP1;P1;durP2;ratioP2;P2;SDS_P1;SDS_P2;PMS_P1;PMS_P2;Temp;Humidity;BMP_temperature;BMP_pressure;BME280_temperature;BME280_humidity;BME280_pressure;Samples;Min_cycle;Max_cycle;Signal;HPM_P1;HPM_P2
2022/09/19 00:01:23;;;;;;;11.80;3.33;;;;;;;8.08;100.00;101757.22;5093575;28;20035;-57
2022/09/19 00:03:59;;;;;;;15.73;3.78;;;;;;;8.08;100.00;101757.22;5072559;28;20931;-57
2022/09/19 00:06:27;;;;;;;11.80;3.30;;;;;;;8.05;100.00;101754.84;5077753;28;20031;-57
2022/09/19 00:08:53;;;;;;;11.50;3.42;;;;;;;8.05;100.00;101752.22;5080487;28;20032;-56
2022/09/19 00:11:19;;;;;;;12.05;3.22;;;;;;;8.04;100.00;101750.53;5082683;28;20039;-56
2022/09/19 00:13:48;;;;;;;12.23;3.10;;;;;;;7.99;100.00;101747.41;5074271;28;20035;-58
2022/09/19 00:16:23;;;;;;;12.68;2.95;;;;;;;8.02;100.00;101755.06;5071537;28;20032;-60
2022/09/19 00:18:51;;;;;;;14.20;3.35;;;;;;;7.98;100.00;101751.03;5081007;28;20122;-58
2022/09/19 00:21:28;;;;;;;12.52;3.17;;;;;;;7.94;100.00;101755.69;5082988;28;20036;-57
2022/09/19 00:26:39;;;;;;;10.45;3.03;;;;;;;7.90;100.00;101755.09;5064333;28;20094;-57
2022/09/19 00:29:05;;;;;;;13.07;3.10;;;;;;;7.89;100.00;101756.06;5064564;28;20036;-55
2022/09/19 00:31:31;;;;;;;14.35;3.20;;;;;;;7.86;100.00;101753.66;5074453;28;20058;-56
2022/09/19 00:33:56;;;;;;;11.88;3.33;;;;;;;7.87;100.00;101757.97;5072656;28;20471;-58
2022/09/19 00:36:22;;;;;;;12.55;3.42;;;;;;;7.81;100.00;101761.09;5075053;28;20044;-56
2022/09/19 00:38:48;;;;;;;12.57;3.10;;;;;;;7.83;100.00;101764.47;5082683;28;20028;-57
2022/09/19 00:41:16;;;;;;;10.88;2.97;;;;;;;7.81;100.00;101755.81;5079866;28;20036;-57
2022/09/19 00:43:58;;;;;;;12.32;3.08;;;;;;;7.79;100.00;101763.00;5083236;28;20039;-59
2022/09/19 00:46:29;;;;;;;13.50;3.17;;;;;;;7.73;100.00;101758.22;5075308;28;20036;-59
2022/09/19 00:49:09;;;;;;;10.52;3.00;;;;;;;7.75;100.00;101762.41;5069899;28;20032;-56
2022/09/19 00:51:46;;;;;;;12.00;3.20;;;;;;;7.73;100.00;101755.56;5074375;28;20029;-56
2022/09/19 00:54:15;;;;;;;13.02;3.03;;;;;;;7.70;100.00;101769.03;5069023;28;20032;-57
2022/09/19 00:56:45;;;;;;;16.30;3.17;;;;;;;7.71;100.00;101757.50;5068715;28;20051;-55
2022/09/19 00:59:10;;;;;;;12.77;3.05;;;;;;;7.73;100.00;101758.22;5073396;28;20032;-56
2022/09/19 01:01:36;;;;;;;11.98;3.10;;;;;;;7.71;100.00;101761.00;5075192;28;20487;-56
2022/09/19 01:04:02;;;;;;;8.82;2.83;;;;;;;7.73;100.00;101760.84;5064991;28;20039;-57
2022/09/19 01:06:46;;;;;;;9.20;2.83;;;;;;;7.76;100.00;101763.25;5075206;28;20434;-56
2022/09/19 01:09:42;;;;;;;13.48;3.10;;;;;;;7.74;100.00;101757.28;5072361;28;20036;-57
2022/09/19 01:12:32;;;;;;;15.73;3.17;;;;;;;7.69;100.00;101756.78;5085233;28;20044;-56
2022/09/19 01:15:20;;;;;;;12.68;2.85;;;;;;;7.63;100.00;101766.88;5071807;28;20039;-55
2022/09/19 01:17:51;;;;;;;15.18;2.83;;;;;;;7.60;100.00;101763.63;5065878;28;20036;-59
2022/09/19 01:20:30;;;;;;;13.73;2.85;;;;;;;7.62;100.00;101764.34;5081832;28;20035;-56
2022/09/19 01:23:16;;;;;;;13.85;3.03;;;;;;;7.63;100.00;101772.16;5065574;28;20040;-56
2022/09/19 01:26:19;;;;;;;15.75;3.10;;;;;;;7.66;100.00;101779.81;5068033;28;20052;-57
2022/09/19 01:28:53;;;;;;;11.75;3.03;;;;;;;7.58;100.00;101782.22;5065945;28;20032;-57
2022/09/19 01:31:22;;;;;;;10.60;2.85;;;;;;;7.56;100.00;101784.16;5069128;28;20098;-56
2022/09/19 01:34:06;;;;;;;14.40;3.47;;;;;;;7.59;100.00;101789.16;5067162;28;20465;-56
2022/09/19 01:36:41;;;;;;;9.45;2.72;;;;;;;7.58;100.00;101787.50;5071480;28;20110;-56
2022/09/19 01:39:09;;;;;;;13.18;3.00;;;;;;;7.56;100.00;101788.56;5067454;28;20145;-56
2022/09/19 01:41:35;;;;;;;15.50;3.13;;;;;;;7.53;100.00;101784.38;5079869;28;20051;-57
2022/09/19 01:44:05;;;;;;;13.45;3.20;;;;;;;7.54;100.00;101788.69;5064020;28;20874;-57
2022/09/19 01:46:46;;;;;;;14.18;2.83;;;;;;;7.58;100.00;101787.50;5074775;28;20032;-56
2022/09/19 01:49:22;;;;;;;13.15;3.05;;;;;;;7.58;100.00;101787.50;5081690;28;20439;-58
2022/09/19 01:52:01;;;;;;;14.65;2.80;;;;;;;7.56;100.00;101789.44;5080225;28;20032;-56
2022/09/19 01:54:43;;;;;;;11.05;2.72;;;;;;;7.60;100.00;101790.03;5073450;28;20056;-58
2022/09/19 01:57:37;;;;;;;14.13;2.97;;;;;;;7.60;100.00;101796.13;5077461;28;20039;-59
2022/09/19 02:00:12;;;;;;;12.45;2.92;;;;;;;7.63;100.00;101795.91;5082647;28;20040;-56
2022/09/19 02:03:36;;;;;;;10.60;2.85;;;;;;;7.70;100.00;101795.44;5070831;28;20036;-57
2022/09/19 02:06:13;;;;;;;15.98;3.10;;;;;;;7.64;100.00;101791.44;5013871;28;20030;-58
2022/09/19 02:08:47;;;;;;;12.68;3.10;;;;;;;7.62;100.00;101794.22;5067189;28;20025;-58
2022/09/19 02:11:18;;;;;;;12.35;2.85;;;;;;;7.61;100.00;101795.16;5080570;28;20040;-56
2022/09/19 02:13:51;;;;;;;9.85;2.70;;;;;;;7.59;100.00;101789.16;5074571;28;20028;-58
2022/09/19 02:16:36;;;;;;;13.15;2.72;;;;;;;7.62;100.00;101796.00;5077650;28;20055;-59
2022/09/19 02:19:12;;;;;;;14.27;2.88;;;;;;;7.55;100.00;101782.44;5078629;28;20086;-55
2022/09/19 02:21:54;;;;;;;13.07;3.38;;;;;;;7.54;100.00;101786.03;5079968;28;20032;-56
2022/09/19 02:24:27;;;;;;;16.20;2.88;;;;;;;7.47;100.00;101790.97;5080288;28;20036;-56
2022/09/19 02:26:54;;;;;;;14.13;3.03;;;;;;;7.46;100.00;101799.00;5074925;28;20051;-58
2022/09/19 02:29:28;;;;;;;16.30;3.35;;;;;;;7.42;100.00;101793.13;5066708;28;20123;-56
2022/09/19 02:31:56;;;;;;;13.60;2.90;;;;;;;7.43;100.00;101800.06;5078436;28;20062;-59
2022/09/19 02:34:21;;;;;;;12.48;2.70;;;;;;;7.44;100.00;101803.56;5083931;28;20030;-54
2022/09/19 02:37:01;;;;;;;14.60;3.00;;;;;;;7.43;100.00;101802.72;5083918;28;20028;-55
2022/09/19 02:39:30;;;;;;;20.10;3.08;;;;;;;7.40;100.00;101802.94;5077593;28;20503;-58
2022/09/19 02:42:08;;;;;;;10.30;3.05;;;;;;;7.40;100.00;101811.69;5078428;28;20435;-56
2022/09/19 02:44:53;;;;;;;16.25;3.20;;;;;;;7.43;100.00;101812.41;5084769;28;20135;-58
2022/09/19 02:47:33;;;;;;;11.68;2.97;;;;;;;7.42;100.00;101813.38;5080066;28;20061;-56
2022/09/19 02:50:20;;;;;;;12.48;3.40;;;;;;;7.39;100.00;101820.56;5073452;28;20052;-58
2022/09/19 02:52:48;;;;;;;14.43;3.10;;;;;;;7.31;100.00;101812.41;5078202;28;20059;-58
2022/09/19 02:55:18;;;;;;;14.25;2.83;;;;;;;7.30;100.00;101815.16;5070292;28;20121;-57
2022/09/19 02:57:47;;;;;;;10.25;2.92;;;;;;;7.29;100.00;101810.84;5076021;28;20035;-56
2022/09/19 03:00:14;;;;;;;11.25;2.85;;;;;;;7.31;100.00;101815.03;5072667;28;20100;-57
2022/09/19 03:02:46;;;;;;;11.48;2.95;;;;;;;7.26;100.00;101806.63;5073445;28;20043;-55
2022/09/19 03:05:19;;;;;;;14.00;3.00;;;;;;;7.29;100.00;101813.47;5047859;28;20379;-59
2022/09/19 03:08:01;;;;;;;14.40;3.10;;;;;;;7.34;100.00;101812.16;5065983;28;20111;-56
2022/09/19 03:10:34;;;;;;;9.27;2.65;;;;;;;7.33;100.00;101821.03;5076063;28;20044;-56
2022/09/19 03:13:03;;;;;;;11.38;2.75;;;;;;;7.26;100.00;101811.91;5072810;28;20056;-55
2022/09/19 03:15:43;;;;;;;14.25;3.05;;;;;;;7.29;100.00;101814.31;5073989;28;20023;-58
2022/09/19 03:18:13;;;;;;;17.30;3.10;;;;;;;7.26;100.00;101814.56;5070344;28;20546;-55
2022/09/19 03:20:44;;;;;;;15.32;3.20;;;;;;;7.30;100.00;101817.78;5091095;28;20123;-57
2022/09/19 03:23:11;;;;;;;11.35;2.88;;;;;;;7.26;100.00;101814.56;5074749;28;20039;-57
2022/09/19 03:25:36;;;;;;;16.73;3.15;;;;;;;7.25;100.00;101812.84;5073875;28;20062;-59
2022/09/19 03:28:02;;;;;;;15.70;3.20;;;;;;;7.25;100.00;101812.84;5078833;28;20123;-56
2022/09/19 03:30:27;;;;;;;9.30;2.80;;;;;;;7.29;100.00;101821.41;5077386;28;20039;-59
2022/09/19 03:32:53;;;;;;;11.07;3.08;;;;;;;7.31;100.00;101819.47;5078241;28;20032;-57
2022/09/19 03:35:19;;;;;;;13.57;2.90;;;;;;;7.29;100.00;101819.56;5069323;28;20595;-56
2022/09/19 03:37:45;;;;;;;9.43;3.10;;;;;;;7.32;100.00;101824.66;5065322;28;20044;-55
2022/09/19 03:40:11;;;;;;;17.55;2.97;;;;;;;7.34;100.00;101816.59;5083032;28;20058;-57
2022/09/19 03:42:37;;;;;;;12.88;2.88;;;;;;;7.37;100.00;101822.50;5081933;28;20085;-57
2022/09/19 03:45:04;;;;;;;19.10;3.30;;;;;;;7.38;100.00;101818.03;5078989;28;20093;-58
2022/09/19 03:47:29;;;;;;;17.08;3.28;;;;;;;7.40;100.00;101816.97;5084052;28;20059;-54
2022/09/19 03:49:54;;;;;;;14.65;3.28;;;;;;;7.43;100.00;101815.91;5085008;28;20067;-59
2022/09/19 03:52:20;;;;;;;8.38;2.70;;;;;;;7.44;100.00;101819.41;5073588;28;20098;-56
2022/09/19 03:54:45;;;;;;;15.23;3.30;;;;;;;7.44;100.00;101816.75;5078697;28;20145;-59
2022/09/19 03:57:13;;;;;;;11.70;3.25;;;;;;;7.44;100.00;101816.75;5076564;28;20410;-56
2022/09/19 03:59:39;;;;;;;10.90;2.95;;;;;;;7.45;100.00;101818.44;5067536;28;20672;-56
2022/09/19 04:02:06;;;;;;;14.43;3.00;;;;;;;7.44;100.00;101816.75;5073613;28;20134;-59
2022/09/19 04:04:31;;;;;;;14.13;3.00;;;;;;;7.45;100.00;101819.25;5078193;28;20115;-58
2022/09/19 04:06:56;;;;;;;11.93;3.03;;;;;;;7.44;100.00;101822.03;5078124;28;20452;-59
2022/09/19 04:09:22;;;;;;;11.18;3.10;;;;;;;7.45;100.00;101829.00;5074664;28;20047;-57
2022/09/19 04:11:47;;;;;;;13.52;2.80;;;;;;;7.44;100.00;101827.31;5072334;28;20032;-56
2022/09/19 04:14:16;;;;;;;14.38;3.45;;;;;;;7.44;100.00;101832.59;5065925;28;20020;-56
2022/09/19 04:16:42;;;;;;;10.82;2.80;;;;;;;7.42;100.00;101834.47;5074028;28;20145;-57
2022/09/19 04:19:09;;;;;;;15.43;3.78;;;;;;;7.43;100.00;101838.81;5066789;28;20036;-57
2022/09/19 04:21:38;;;;;;;12.75;2.80;;;;;;;7.41;100.00;101841.56;5079687;28;20024;-56
2022/09/19 04:24:05;;;;;;;15.95;3.10;;;;;;;7.38;100.00;101845.28;5069230;28;20368;-57
2022/09/19 04:26:30;;;;;;;14.75;3.20;;;;;;;7.40;100.00;101847.78;5067982;28;20444;-56
2022/09/19 04:28:55;;;;;;;14.98;3.03;;;;;;;7.39;100.00;101844.31;5078389;28;20117;-56
2022/09/19 04:31:22;;;;;;;13.68;3.03;;;;;;;7.39;100.00;101844.31;5087186;28;20451;-58
2022/09/19 04:33:47;;;;;;;14.32;3.00;;;;;;;7.37;100.00;101848.88;5079432;28;20052;-57
2022/09/19 04:36:13;;;;;;;13.25;2.95;;;;;;;7.39;100.00;101852.25;5075895;28;20085;-57
2022/09/19 04:38:38;;;;;;;12.00;3.25;;;;;;;7.42;100.00;101845.03;5078085;28;20768;-57
2022/09/19 04:41:04;;;;;;;14.60;3.30;;;;;;;7.40;100.00;101848.63;5087523;28;20031;-56
2022/09/19 04:43:31;;;;;;;10.07;3.00;;;;;;;7.42;100.00;101851.19;5074225;28;20557;-57
2022/09/19 04:45:57;;;;;;;14.27;3.50;;;;;;;7.44;100.00;101853.72;5076125;28;20139;-57
2022/09/19 04:48:23;;;;;;;16.60;3.45;;;;;;;7.43;100.00;101857.28;5075615;28;20466;-56
2022/09/19 04:50:50;;;;;;;11.80;3.33;;;;;;;7.44;100.00;101853.72;5078667;28;20031;-56
2022/09/19 04:53:23;;;;;;;10.32;3.08;;;;;;;7.45;100.00;101855.38;5071092;28;20032;-56
2022/09/19 04:55:50;;;;;;;12.55;3.10;;;;;;;7.44;100.00;101853.72;5069070;28;20037;-56
2022/09/19 04:58:16;;;;;;;14.65;3.17;;;;;;;7.51;100.00;101860.19;5081343;28;20028;-56
2022/09/19 05:00:45;;;;;;;15.38;3.17;;;;;;;7.53;100.00;101859.13;5075707;28;20424;-55
2022/09/19 05:03:14;;;;;;;16.23;3.80;;;;;;;7.51;100.00;101860.19;5069560;28;20033;-56
2022/09/19 05:05:50;;;;;;;20.25;3.65;;;;;;;7.60;100.00;101870.03;5070835;28;20059;-56
2022/09/19 05:08:18;;;;;;;16.48;3.50;;;;;;;7.63;100.00;101869.81;5064670;28;20094;-59
2022/09/19 05:10:45;;;;;;;17.17;3.40;;;;;;;7.66;100.00;101866.94;5080698;28;20028;-58
2022/09/19 05:13:11;;;;;;;15.10;3.50;;;;;;;7.69;100.00;101867.69;5059207;28;20024;-57
2022/09/19 05:15:38;;;;;;;13.88;3.63;;;;;;;7.67;100.00;101871.28;5059057;28;20024;-57
2022/09/19 05:18:04;;;;;;;20.67;3.80;;;;;;;7.71;100.00;101871.03;5061972;28;20029;-59
2022/09/19 05:20:29;;;;;;;17.27;3.67;;;;;;;7.74;100.00;101876.09;5074666;28;20028;-58
2022/09/19 05:22:58;;;;;;;15.20;3.47;;;;;;;7.77;100.00;101878.47;5063705;28;20038;-58
2022/09/19 05:25:28;;;;;;;21.77;3.72;;;;;;;7.80;100.00;101886.19;5083728;28;20035;-56
2022/09/19 05:27:56;;;;;;;16.48;3.70;;;;;;;7.80;100.00;101880.91;5077769;28;20047;-57
2022/09/19 05:30:24;;;;;;;13.98;3.50;;;;;;;7.83;100.00;101875.38;5081261;28;20525;-59
2022/09/19 05:32:50;;;;;;;20.08;3.72;;;;;;;7.86;100.00;101885.72;5068881;28;20070;-57
2022/09/19 05:35:16;;;;;;;14.95;3.60;;;;;;;7.90;100.00;101884.50;5075067;28;20071;-57
2022/09/19 05:37:42;;;;;;;13.73;3.50;;;;;;;7.92;100.00;101890.53;5063320;28;20455;-57
2022/09/19 05:40:08;;;;;;;23.75;3.70;;;;;;;7.92;100.00;101885.25;5072975;28;20036;-57
2022/09/19 05:42:34;;;;;;;19.02;4.05;;;;;;;7.96;100.00;101893.78;5072444;28;20100;-57
2022/09/19 05:44:59;;;;;;;14.32;3.58;;;;;;;7.93;100.00;101892.19;5069741;28;20136;-57
2022/09/19 05:47:25;;;;;;;15.52;3.75;;;;;;;7.96;100.00;101895.56;5067598;28;20132;-57
2022/09/19 05:49:51;;;;;;;13.02;3.50;;;;;;;7.95;100.00;101900.00;5066070;28;20059;-58
2022/09/19 05:55:00;;;;;;;15.27;3.30;;;;;;;7.96;100.00;101900.84;5068960;28;20097;-58
2022/09/19 05:57:25;;;;;;;19.77;3.63;;;;;;;7.95;100.00;101897.38;5068743;28;20672;-58
2022/09/19 05:59:50;;;;;;;14.38;3.38;;;;;;;7.97;100.00;101891.94;5068941;28;20032;-60
2022/09/19 06:02:20;;;;;;;16.80;3.80;;;;;;;7.97;100.00;101899.88;5070506;28;20515;-57
2022/09/19 06:04:45;;;;;;;13.73;3.80;;;;;;;7.99;100.00;101900.63;5068972;28;20063;-58
2022/09/19 06:07:11;;;;;;;18.38;3.55;;;;;;;8.03;100.00;101900.25;5067800;28;20456;-60
2022/09/19 06:09:37;;;;;;;16.88;3.65;;;;;;;8.07;100.00;101906.13;5063726;28;20044;-56
2022/09/19 06:12:02;;;;;;;16.73;3.40;;;;;;;8.12;100.00;101904.00;5074890;28;20028;-57
2022/09/19 06:14:28;;;;;;;13.73;3.45;;;;;;;8.17;100.00;101909.75;5069799;28;20047;-58
2022/09/19 06:16:54;;;;;;;16.63;3.60;;;;;;;8.23;100.00;101912.88;5066720;28;20028;-60
2022/09/19 06:19:19;;;;;;;21.48;3.53;;;;;;;8.28;100.00;101911.56;5065756;28;20442;-57
2022/09/19 06:21:44;;;;;;;15.57;3.97;;;;;;;8.34;100.00;101911.06;5068336;28;20028;-56
2022/09/19 06:24:10;;;;;;;16.80;3.95;;;;;;;8.45;100.00;101912.03;5064671;28;20032;-57
2022/09/19 06:26:36;;;;;;;16.95;4.13;;;;;;;8.53;100.00;101925.50;5069359;28;20056;-57
2022/09/19 06:29:03;;;;;;;16.25;3.80;;;;;;;8.58;100.00;101915.44;5048258;28;20164;-58
2022/09/19 06:31:28;;;;;;;18.50;3.90;;;;;;;8.62;100.00;101923.94;5071868;28;20052;-57
2022/09/19 06:33:54;;;;;;;16.02;3.53;;;;;;;8.67;100.00;101920.94;5064462;28;20442;-59
2022/09/19 06:36:19;;;;;;;18.77;3.72;;;;;;;8.68;100.00;101923.47;5068354;28;20471;-60
2022/09/19 06:38:45;;;;;;;14.30;3.38;;;;;;;8.73;100.00;101921.28;5065415;28;20028;-58
2022/09/19 06:41:10;;;;;;;14.35;3.60;;;;;;;8.74;100.00;101925.63;5073677;28;20028;-57
2022/09/19 06:43:36;;;;;;;17.75;3.60;;;;;;;8.81;100.00;101933.06;5066578;28;20067;-58
2022/09/19 06:46:02;;;;;;;18.80;3.58;;;;;;;8.87;100.00;101932.56;5066810;28;20088;-56
2022/09/19 06:48:27;;;;;;;16.38;3.78;;;;;;;8.92;100.00;101934.88;5067293;28;20041;-58
2022/09/19 06:50:53;;;;;;;14.27;3.75;;;;;;;8.93;100.00;101937.38;5070730;28;20040;-58
2022/09/19 06:53:19;;;;;;;18.83;3.95;;;;;;;9.00;100.00;101943.88;5069629;28;20123;-58
2022/09/19 06:55:44;;;;;;;18.58;4.63;;;;;;;9.02;100.00;101941.06;5074120;28;20064;-60
2022/09/19 06:58:10;;;;;;;13.85;3.75;;;;;;;9.14;100.00;101949.84;5063254;28;20533;-57
2022/09/19 07:00:38;;;;;;;20.90;4.00;;;;;;;9.21;100.00;101952.81;5075698;28;20423;-60
2022/09/19 07:03:09;;;;;;;17.10;3.53;;;;;;;9.29;100.00;101953.88;5068290;28;20055;-57
2022/09/19 07:05:37;;;;;;;21.58;3.33;;;;;;;9.37;100.00;101950.59;5066977;28;20064;-58
2022/09/19 07:08:04;;;;;;;14.60;3.55;;;;;;;9.45;100.00;101957.06;5063561;28;20046;-59
2022/09/19 07:10:29;;;;;;;14.25;3.22;;;;;;;9.48;100.00;101960.28;5076795;28;20032;-59
2022/09/19 07:12:59;;;;;;;19.33;3.55;;;;;;;9.55;100.00;101968.59;5070088;28;20105;-58
2022/09/19 07:15:24;;;;;;;15.60;3.47;;;;;;;9.63;100.00;101965.31;5067141;28;20486;-60
2022/09/19 07:17:53;;;;;;;16.48;3.35;;;;;;;9.71;100.00;101976.09;5063024;28;20089;-60
2022/09/19 07:20:19;;;;;;;16.15;3.10;;;;;;;9.80;100.00;101972.69;5058528;28;20036;-62
2022/09/19 07:22:44;;;;;;;14.00;3.22;;;;;;;9.83;100.00;101976.88;5061453;28;20055;-61
2022/09/19 07:25:09;;;;;;;15.65;3.33;;;;;;;9.88;100.00;101973.84;5064698;28;20032;-60
2022/09/19 07:27:36;;;;;;;12.80;3.10;;;;;;;9.93;100.00;101987.56;5065389;28;20040;-58
2022/09/19 07:30:03;;;;;;;12.40;3.03;;;;;;;9.98;100.00;101990.66;5081482;28;20039;-59
2022/09/19 07:32:29;;;;;;;12.98;2.88;;;;;;;10.01;100.00;101990.38;5071460;28;20028;-57
2022/09/19 07:34:54;;;;;;;12.15;2.80;;;;;;;10.04;100.00;101995.44;5076057;28;20051;-59
2022/09/19 07:37:19;;;;;;;16.52;3.75;;;;;;;10.06;100.00;101995.28;5072861;28;20052;-59
2022/09/19 07:39:45;;;;;;;14.43;3.00;;;;;;;10.07;100.00;102004.94;5077720;28;20031;-59
2022/09/19 07:42:10;;;;;;;15.02;3.40;;;;;;;10.14;100.00;101994.66;5088969;28;20464;-58
2022/09/19 07:44:35;;;;;;;15.32;3.63;;;;;;;10.15;100.00;102002.47;5064713;28;20045;-59
2022/09/19 07:49:45;;;;;;;13.02;3.17;;;;;;;10.24;100.00;102000.84;5065810;28;20051;-57
2022/09/19 07:52:10;;;;;;;12.88;3.53;;;;;;;10.30;100.00;102000.34;5080323;28;20059;-57
2022/09/19 07:54:35;;;;;;;14.82;3.30;;;;;;;10.29;100.00;101993.34;5073129;28;20038;-57
2022/09/19 07:57:00;;;;;;;14.90;3.17;;;;;;;10.34;100.00;102001.75;5063779;28;20036;-56
2022/09/19 07:59:26;;;;;;;14.45;3.10;;;;;;;10.39;100.00;102000.50;5076236;28;20039;-57
2022/09/19 08:01:51;;;;;;;14.60;3.45;;;;;;;10.41;100.00;102003.88;5079284;28;20032;-57
2022/09/19 08:04:17;;;;;;;11.90;2.95;;;;;;;10.47;100.00;102006.88;5067099;28;20028;-60
2022/09/19 08:06:42;;;;;;;14.50;3.20;;;;;;;10.52;100.00;102009.16;5071939;28;20105;-58
2022/09/19 08:09:10;;;;;;;13.23;2.90;;;;;;;10.49;100.00;102004.94;5082040;28;20058;-58
2022/09/19 08:11:38;;;;;;;14.00;3.25;;;;;;;10.55;100.00;102013.34;5094133;28;20020;-57
2022/09/19 08:14:03;;;;;;;15.40;2.95;;;;;;;10.61;100.00;102013.63;5072316;28;20063;-56
2022/09/19 08:16:28;;;;;;;13.73;3.20;;;;;;;10.66;100.00;102015.06;5074218;28;20474;-61
2022/09/19 08:18:54;;;;;;;16.02;3.10;;;;;;;10.76;100.00;102015.94;5068137;28;20112;-58
2022/09/19 08:21:19;;;;;;;14.40;2.80;;;;;;;10.84;100.00;102018.75;5082957;28;20598;-57
2022/09/19 08:23:45;;;;;;;17.05;3.00;;;;;;;10.88;100.00;102022.84;5072420;28;20039;-59
2022/09/19 08:26:10;;;;;;;14.45;3.15;;;;;;;10.94;100.00;102029.41;5078759;28;20066;-60
2022/09/19 08:28:36;;;;;;;13.27;3.08;;;;;;;10.96;100.00;102029.28;5075453;28;20031;-57
2022/09/19 08:31:03;;;;;;;16.23;3.42;;;;;;;10.98;100.00;102032.63;5074291;28;20056;-58
2022/09/19 08:33:29;;;;;;;14.73;3.40;;;;;;;11.11;100.00;102035.88;5064673;28;20174;-59
2022/09/19 08:35:57;;;;;;;14.00;3.17;;;;;;;11.25;100.00;102032.00;5059763;28;20028;-58
2022/09/19 08:38:22;;;;;;;12.68;2.80;;;;;;;11.30;98.54;102028.97;5060824;28;20147;-58
2022/09/19 08:41:23;;;;;;;17.23;2.80;;;;;;;11.38;99.56;102037.06;5080625;28;20106;-59
2022/09/19 08:44:02;;;;;;;12.82;2.78;;;;;;;11.51;97.88;102036.81;5072305;28;20051;-59
2022/09/19 08:46:40;;;;;;;11.82;2.92;;;;;;;11.59;97.71;102044.06;5058879;28;20036;-62
2022/09/19 08:49:21;;;;;;;13.75;3.03;;;;;;;11.57;95.79;102035.41;5070185;28;20746;-60
2022/09/19 08:52:00;;;;;;;9.13;2.25;;;;;;;11.53;95.63;102028.69;5063869;28;20757;-61
2022/09/19 08:54:52;;;;;;;11.02;2.50;;;;;;;11.56;96.83;102039.06;5072427;28;20032;-61
2022/09/19 08:57:27;;;;;;;10.65;2.60;;;;;;;11.62;95.82;102038.50;5060642;28;20509;-60
2022/09/19 09:00:02;;;;;;;13.88;2.80;;;;;;;11.69;96.24;102041.41;5075494;28;20048;-59
2022/09/19 09:02:43;;;;;;;18.70;3.10;;;;;;;11.85;96.20;102032.91;5082871;28;20028;-61
2022/09/19 09:05:20;;;;;;;11.68;2.40;;;;;;;11.93;95.28;102035.69;5065922;28;20032;-60
2022/09/19 09:07:59;;;;;;;14.88;2.75;;;;;;;12.03;93.75;102029.53;5075972;28;20437;-60
2022/09/19 09:10:50;;;;;;;13.23;2.53;;;;;;;12.21;92.25;102038.50;5074117;28;20548;-61
2022/09/19 09:13:38;;;;;;;17.38;2.90;;;;;;;12.29;93.06;102039.59;5070412;28;20027;-61
2022/09/19 09:16:22;;;;;;;13.13;2.25;;;;;;;12.41;91.80;102034.94;5077655;28;20028;-63
2022/09/19 09:18:58;;;;;;;11.23;2.58;;;;;;;12.43;89.86;102033.81;5063169;28;20070;-61
2022/09/19 09:21:30;;;;;;;14.95;2.70;;;;;;;12.55;89.01;102038.97;5076366;28;20060;-62
2022/09/19 09:24:05;;;;;;;13.30;2.47;;;;;;;12.64;89.53;102032.78;5076853;28;20028;-62
2022/09/19 09:26:36;;;;;;;13.70;2.65;;;;;;;12.68;88.66;102028.00;5076747;28;20509;-60
2022/09/19 09:29:23;;;;;;;9.27;2.15;;;;;;;12.76;86.65;102025.44;5062452;28;20036;-61
2022/09/19 09:32:00;;;;;;;12.73;2.75;;;;;;;12.87;87.14;102032.38;5083755;28;20078;-59
2022/09/19 09:34:32;;;;;;;13.77;2.55;;;;;;;12.98;88.05;102034.84;5071881;28;20029;-62
2022/09/19 09:37:04;;;;;;;16.00;2.72;;;;;;;13.05;85.92;102033.31;5071248;28;20131;-63
2022/09/19 09:39:59;;;;;;;13.85;2.58;;;;;;;13.09;88.87;102035.66;5074436;28;20024;-64
2022/09/19 09:43:02;;;;;;;9.38;2.05;;;;;;;13.16;82.49;102034.06;5061028;28;20045;-61
2022/09/19 09:45:48;;;;;;;11.07;2.65;;;;;;;13.23;86.18;102037.78;5073227;28;20123;-63
2022/09/19 09:48:33;;;;;;;13.70;2.72;;;;;;;13.28;84.46;102035.53;5080973;28;20732;-64
2022/09/19 09:51:30;;;;;;;10.63;2.30;;;;;;;13.39;84.10;102036.31;5088978;28;20035;-62
2022/09/19 09:57:10;;;;;;;;;;;;;;;13.58;84.06;102043.38;5081813;28;20120;-61
2022/09/19 10:05:50;;;;;;;13.20;2.33;;;;;;;13.74;80.84;102045.34;5067973;28;20063;-59
2022/09/19 10:08:22;;;;;;;10.35;2.08;;;;;;;13.63;80.34;102037.56;5078668;28;20052;-60
2022/09/19 10:10:51;;;;;;;13.20;4.30;;;;;;;13.61;78.87;102044.91;5080642;28;20028;-63
2022/09/19 10:13:25;;;;;;;9.80;1.90;;;;;;;13.51;75.21;102043.13;5080163;28;20032;-59
2022/09/19 10:15:54;;;;;;;11.80;2.17;;;;;;;13.54;76.25;102037.50;5066617;28;20549;-63
2022/09/19 10:18:25;;;;;;;7.32;1.88;;;;;;;13.67;78.81;102041.63;5067136;28;20060;-59
2022/09/19 10:20:52;;;;;;;7.90;2.10;;;;;;;13.78;76.67;102044.06;5091691;28;20043;-63
2022/09/19 10:23:29;;;;;;;11.65;2.35;;;;;;;13.79;74.38;102037.72;5077581;28;20101;-63
2022/09/19 10:26:00;;;;;;;11.82;2.30;;;;;;;13.85;73.49;102042.44;5076255;28;20032;-61
2022/09/19 10:28:31;;;;;;;8.73;1.80;;;;;;;13.85;74.42;102049.59;5075632;28;20628;-62
2022/09/19 10:31:00;;;;;;;8.57;2.17;;;;;;;13.81;74.31;102054.41;5084005;28;20025;-59
2022/09/19 10:33:44;;;;;;;7.43;2.10;;;;;;;13.78;75.03;102044.06;5068672;28;20028;-61
2022/09/19 10:36:32;;;;;;;14.13;2.70;;;;;;;13.81;77.38;102051.72;5069752;28;20482;-62
2022/09/19 10:39:00;;;;;;;11.82;2.45;;;;;;;13.80;75.38;102044.72;5071718;28;20154;-59
2022/09/19 10:41:28;;;;;;;10.63;2.13;;;;;;;13.79;76.83;102048.38;5090160;28;20423;-61
2022/09/19 10:44:00;;;;;;;9.25;2.17;;;;;;;13.71;77.55;102053.63;5071927;28;20039;-62
2022/09/19 10:46:35;;;;;;;12.95;2.28;;;;;;;13.59;76.09;102037.84;5074943;28;20057;-61
2022/09/19 10:49:05;;;;;;;7.95;1.98;;;;;;;13.57;76.70;102053.19;5072343;28;20054;-60
2022/09/19 10:51:46;;;;;;;10.10;2.20;;;;;;;13.52;75.46;102039.47;5073084;28;20036;-63
2022/09/19 10:54:36;;;;;;;11.77;2.38;;;;;;;13.55;76.49;102047.16;5075356;28;20089;-59
2022/09/19 10:57:04;;;;;;;7.68;1.98;;;;;;;13.67;77.17;102038.94;5067749;28;20041;-60
2022/09/19 10:59:36;;;;;;;10.95;2.30;;;;;;;13.90;75.64;102043.78;5066745;28;20044;-61
2022/09/19 11:02:10;;;;;;;8.55;2.20;;;;;;;14.21;72.65;102036.19;5080112;28;20483;-60
2022/09/19 11:04:36;;;;;;;11.32;2.17;;;;;;;14.33;70.23;102035.94;5070861;28;20059;-61
2022/09/19 11:07:26;;;;;;;8.07;2.10;;;;;;;14.34;69.81;102034.94;5067671;28;20050;-59
2022/09/19 11:09:58;;;;;;;12.85;2.30;;;;;;;14.36;69.88;102033.78;5073182;28;20111;-57
2022/09/19 11:12:24;;;;;;;10.40;1.88;;;;;;;14.34;71.62;102043.81;5078011;28;20074;-61
2022/09/19 11:14:50;;;;;;;7.43;2.00;;;;;;;14.28;70.52;102044.44;5066859;28;20833;-58
2022/09/19 11:17:30;;;;;;;14.40;2.10;;;;;;;14.26;71.47;102043.72;5071864;28;20058;-61
2022/09/19 11:20:02;;;;;;;9.52;2.20;;;;;;;14.25;71.16;102037.56;5068606;28;20032;-58
2022/09/19 11:22:36;;;;;;;9.05;2.08;;;;;;;14.30;73.15;102029.09;5067701;28;20111;-60
2022/09/19 11:25:21;;;;;;;9.50;2.10;;;;;;;14.35;71.40;102032.13;5072394;28;20032;-58
2022/09/19 11:28:11;;;;;;;9.98;1.98;;;;;;;14.37;72.75;102035.47;5064105;28;20483;-57
2022/09/19 11:30:49;;;;;;;9.48;2.00;;;;;;;14.48;74.25;102036.19;5069950;28;20107;-58
2022/09/19 11:33:38;;;;;;;10.60;2.05;;;;;;;14.43;73.03;102034.00;5065513;28;20115;-58
2022/09/19 11:36:08;;;;;;;10.73;2.38;;;;;;;14.34;74.29;102041.13;5063505;28;22830;-58
2022/09/19 11:38:54;;;;;;;10.60;1.95;;;;;;;14.16;76.11;102043.84;5067976;28;20043;-59
2022/09/19 11:41:36;;;;;;;6.78;2.00;;;;;;;13.88;76.93;102041.31;5065347;28;20358;-58
2022/09/19 11:44:27;;;;;;;14.30;2.30;;;;;;;13.74;78.38;102048.00;5067249;28;20039;-57
2022/09/19 11:47:18;;;;;;;15.30;2.40;;;;;;;13.67;77.99;102046.94;5068210;28;20035;-59
2022/09/19 11:50:10;;;;;;;10.23;2.20;;;;;;;13.68;77.85;102035.28;5064604;28;20406;-58
2022/09/19 11:52:50;;;;;;;15.07;2.37;;;;;;;13.75;77.68;102041.69;5066945;28;20103;-59
2022/09/19 11:55:27;;;;;;;11.35;2.30;;;;;;;13.91;79.22;102037.50;5065758;28;20286;-58